Time;durP1;ratioP1;P1;durP2;ratioP2;P2;SDS_P1;SDS_P2;PMS_P1;PMS_P2;Temp;Humidity;BMP_temperature;BMP_pressure;BME280_temperature;BME280_humidity;BME280_pressure;Samples;Min_cycle;Max_cycle;Signal;HPM_P1;HPM_P2
2022/11/01 00:01:06;;;;;;;5.18;1.73;;;13.20;99.90;;;;;;5025862;28;20049;-79
2022/11/01 00:03:33;;;;;;;4.80;1.73;;;13.20;99.90;;;;;;5042688;28;20073;-79
2022/11/01 00:06:00;;;;;;;4.95;1.30;;;13.20;99.90;;;;;;5016192;28;20045;-79
2022/11/01 00:08:27;;;;;;;4.22;1.60;;;13.10;99.90;;;;;;5024308;28;20103;-79
2022/11/01 00:11:03;;;;;;;5.43;1.60;;;13.10;99.90;;;;;;5015590;28;20486;-80
2022/11/01 00:13:30;;;;;;;3.53;1.25;;;13.00;99.90;;;;;;5017718;28;20128;-79
2022/11/01 00:15:57;;;;;;;6.30;1.80;;;13.00;99.90;;;;;;5042863;28;20082;-79
2022/11/01 00:18:24;;;;;;;3.88;1.63;;;12.90;99.90;;;;;;5026177;28;20633;-78
2022/11/01 00:20:50;;;;;;;4.93;1.48;;;12.80;99.90;;;;;;5042989;28;20052;-79
2022/11/01 00:23:17;;;;;;;4.07;1.73;;;12.80;99.90;;;;;;5023815;28;20044;-79
2022/11/01 00:25:44;;;;;;;6.35;1.70;;;12.70;99.90;;;;;;5041452;28;20049;-78
2022/11/01 00:28:11;;;;;;;3.88;1.40;;;12.70;99.90;;;;;;5039817;28;20055;-79
2022/11/01 00:30:38;;;;;;;5.43;1.65;;;12.60;99.90;;;;;;4993058;28;20052;-79
2022/11/01 00:33:05;;;;;;;3.63;1.17;;;12.60;99.90;;;;;;5040576;28;20060;-79
2022/11/01 00:35:32;;;;;;;4.22;1.42;;;12.60;99.90;;;;;;5042263;28;20053;-79
2022/11/01 00:37:59;;;;;;;2.30;0.98;;;12.60;99.90;;;;;;5042540;28;20552;-79
2022/11/01 00:40:26;;;;;;;2.95;1.13;;;12.50;99.90;;;;;;5043381;28;20045;-79
2022/11/01 00:42:53;;;;;;;4.82;1.67;;;12.50;99.90;;;;;;5008309;28;20045;-79
2022/11/01 00:45:20;;;;;;;6.15;2.05;;;12.50;99.90;;;;;;5042498;28;20144;-79
2022/11/01 00:47:47;;;;;;;3.42;1.63;;;12.50;99.90;;;;;;5042140;28;20554;-78
2022/11/01 00:50:14;;;;;;;5.28;1.70;;;12.50;99.90;;;;;;5011439;28;20064;-78
2022/11/01 00:52:41;;;;;;;6.28;1.90;;;12.50;99.90;;;;;;5031395;28;20434;-78
2022/11/01 00:55:08;;;;;;;6.28;1.92;;;12.30;99.90;;;;;;5023067;28;20053;-79
2022/11/01 00:57:35;;;;;;;4.82;1.80;;;12.30;99.90;;;;;;5024568;28;20518;-78
2022/11/01 01:00:03;;;;;;;5.18;1.83;;;12.20;99.90;;;;;;5024502;28;20387;-79
2022/11/01 01:02:29;;;;;;;5.05;1.58;;;12.20;99.90;;;;;;5036650;28;20099;-78
2022/11/01 01:04:56;;;;;;;4.78;1.58;;;12.20;99.90;;;;;;5019878;28;20096;-79
2022/11/01 01:07:23;;;;;;;8.20;1.60;;;12.20;99.90;;;;;;5004935;28;20053;-79
2022/11/01 01:09:50;;;;;;;8.65;1.83;;;12.10;99.90;;;;;;5021966;28;20095;-79
2022/11/01 01:12:17;;;;;;;3.88;1.58;;;12.20;99.90;;;;;;5014916;28;20056;-79
2022/11/01 01:14:43;;;;;;;5.07;1.90;;;12.10;99.90;;;;;;5037681;28;20053;-79
2022/11/01 01:17:10;;;;;;;7.90;2.35;;;12.10;99.90;;;;;;5043293;28;20045;-80
2022/11/01 01:19:37;;;;;;;5.45;1.58;;;12.10;99.90;;;;;;5026490;28;20518;-79
2022/11/01 01:22:04;;;;;;;5.50;1.88;;;12.10;99.90;;;;;;5037992;28;20052;-79
2022/11/01 01:24:31;;;;;;;5.03;1.48;;;12.00;99.90;;;;;;5041202;28;20041;-78
2022/11/01 01:26:58;;;;;;;3.42;1.63;;;12.00;99.90;;;;;;5031570;28;20049;-79
2022/11/01 01:29:25;;;;;;;4.03;1.67;;;12.00;99.90;;;;;;5028924;28;20135;-79
2022/11/01 01:31:51;;;;;;;5.45;1.52;;;12.00;99.90;;;;;;5036999;28;20628;-79
2022/11/01 01:34:18;;;;;;;5.85;1.58;;;12.00;99.90;;;;;;5019586;28;20045;-79
2022/11/01 01:36:46;;;;;;;6.32;1.85;;;12.00;99.90;;;;;;5043566;28;20393;-80
2022/11/01 01:39:12;;;;;;;5.43;1.75;;;12.00;99.90;;;;;;5011467;28;20053;-79
2022/11/01 01:41:54;;;;;;;5.55;2.08;;;12.00;99.90;;;;;;5016552;28;20061;-80
2022/11/01 01:44:40;;;;;;;7.55;2.10;;;12.00;99.90;;;;;;5040196;28;20056;-79
2022/11/01 01:47:11;;;;;;;4.20;1.85;;;12.10;99.90;;;;;;5047488;28;20539;-78
2022/11/01 01:49:38;;;;;;;4.60;1.52;;;12.10;99.90;;;;;;5047045;28;20052;-79
2022/11/01 01:52:08;;;;;;;8.43;2.33;;;12.10;99.90;;;;;;5030448;28;20407;-79
2022/11/01 01:54:35;;;;;;;6.38;1.80;;;12.10;99.90;;;;;;5046970;28;20670;-79
2022/11/01 01:57:01;;;;;;;3.33;1.55;;;12.10;99.90;;;;;;5029902;28;20505;-79
2022/11/01 01:59:28;;;;;;;4.07;1.83;;;12.00;99.90;;;;;;5014019;28;20049;-79
2022/11/01 02:01:56;;;;;;;5.38;2.33;;;12.00;99.90;;;;;;5039672;28;20045;-79
2022/11/01 02:04:53;;;;;;;5.10;1.85;;;12.00;99.90;;;;;;5000075;28;20137;-79
2022/11/01 02:07:19;;;;;;;5.88;2.88;;;12.00;99.90;;;;;;5011797;28;20069;-79
2022/11/01 02:09:46;;;;;;;4.75;1.67;;;12.10;99.90;;;;;;5043541;28;20142;-79
2022/11/01 02:12:13;;;;;;;4.72;1.95;;;12.00;99.90;;;;;;5019813;28;20067;-79
2022/11/01 02:14:41;;;;;;;7.97;2.42;;;12.00;99.90;;;;;;5022786;28;20052;-78
2022/11/01 02:17:32;;;;;;;7.47;2.63;;;12.10;99.90;;;;;;5026283;28;20137;-79
2022/11/01 02:20:24;;;;;;;6.03;2.33;;;12.10;99.90;;;;;;5026899;28;20531;-78
2022/11/01 02:22:59;;;;;;;4.07;1.65;;;12.10;99.90;;;;;;5044625;28;20067;-79
2022/11/01 02:25:45;;;;;;;5.63;1.83;;;12.20;99.90;;;;;;5038654;28;20137;-79
2022/11/01 02:28:21;;;;;;;5.30;1.88;;;12.20;99.90;;;;;;5027078;28;20500;-78
2022/11/01 02:30:56;;;;;;;3.80;1.90;;;12.30;99.90;;;;;;5028300;28;20049;-79
2022/11/01 02:33:33;;;;;;;4.28;1.70;;;12.30;99.90;;;;;;5037703;28;20051;-79
2022/11/01 02:36:04;;;;;;;6.15;2.05;;;12.40;99.90;;;;;;5024251;28;20063;-78
2022/11/01 02:38:36;;;;;;;5.45;1.52;;;12.40;99.90;;;;;;5026101;28;20042;-79
2022/11/01 02:41:18;;;;;;;6.68;1.73;;;12.50;99.90;;;;;;5030696;28;20080;-79
2022/11/01 02:43:58;;;;;;;4.28;1.45;;;12.60;99.90;;;;;;5044528;28;20465;-79
2022/11/01 02:49:11;;;;;;;2.47;1.15;;;12.70;99.90;;;;;;5026364;28;20104;-80
2022/11/01 02:51:38;;;;;;;2.92;1.30;;;12.80;99.90;;;;;;5009014;28;20049;-80
2022/11/01 02:54:12;;;;;;;2.63;0.95;;;12.80;99.90;;;;;;5042305;28;20052;-79
2022/11/01 02:56:38;;;;;;;2.47;0.80;;;12.80;99.90;;;;;;5030052;28;20041;-79
2022/11/01 02:59:07;;;;;;;3.03;1.00;;;12.80;99.90;;;;;;5029486;28;20053;-79
2022/11/01 03:01:34;;;;;;;1.48;0.93;;;12.70;99.90;;;;;;5009047;28;20093;-80
2022/11/01 03:04:02;;;;;;;1.83;0.82;;;12.60;99.90;;;;;;5024861;28;20117;-79
2022/11/01 03:06:34;;;;;;;2.10;0.90;;;12.50;99.90;;;;;;5045242;28;20045;-81
2022/11/01 03:09:06;;;;;;;1.95;0.80;;;12.40;99.90;;;;;;5028973;28;20049;-80
2022/11/01 03:11:56;;;;;;;4.00;1.52;;;12.30;99.90;;;;;;5016324;28;20049;-83
2022/11/01 03:14:37;;;;;;;1.98;1.08;;;12.10;99.90;;;;;;5046379;28;20048;-84
2022/11/01 03:17:06;;;;;;;4.43;1.20;;;12.00;99.90;;;;;;5032137;28;20254;-84
2022/11/01 03:19:57;;;;;;;2.47;0.88;;;11.80;99.90;;;;;;5048068;28;20515;-84
2022/11/01 03:22:34;;;;;;;6.97;1.42;;;11.70;99.90;;;;;;5047024;28;21229;-85
2022/11/01 03:25:38;;;;;;;3.70;1.40;;;11.50;99.90;;;;;;5029943;28;20053;-85
2022/11/01 03:27:59;;;;;;;4.63;1.67;;;11.40;99.90;;;;;;5039974;28;20061;-85
2022/11/01 03:30:25;;;;;;;6.10;2.05;;;11.20;99.90;;;;;;5030852;28;20581;-87
2022/11/01 03:32:53;;;;;;;6.70;2.00;;;11.10;99.90;;;;;;5030697;28;20063;-85
2022/11/01 03:35:25;;;;;;;7.80;2.65;;;11.00;99.90;;;;;;5031727;28;20569;-88
2022/11/01 03:37:54;;;;;;;5.07;1.70;;;10.80;99.90;;;;;;5034028;28;20055;-87
2022/11/01 03:40:21;;;;;;;5.47;1.73;;;10.70;99.90;;;;;;5033475;28;20057;-88
2022/11/01 03:42:48;;;;;;;9.15;2.10;;;10.60;99.90;;;;;;5030684;28;20145;-88
2022/11/01 03:45:18;;;;;;;4.50;1.95;;;10.50;99.90;;;;;;5014704;28;20053;-87
2022/11/01 03:47:45;;;;;;;7.85;1.95;;;10.50;99.90;;;;;;4997593;28;20140;-86
2022/11/01 03:50:25;;;;;;;4.93;2.00;;;10.50;99.90;;;;;;4997293;28;20064;-83
2022/11/01 03:52:52;;;;;;;8.40;2.55;;;10.50;99.90;;;;;;5029096;28;20080;-82
2022/11/01 03:55:20;;;;;;;7.13;2.15;;;10.60;99.90;;;;;;5013299;28;20147;-82
2022/11/01 03:57:54;;;;;;;10.60;2.55;;;10.60;99.90;;;;;;5046561;28;20102;-82
2022/11/01 04:00:25;;;;;;;7.63;2.38;;;10.60;99.90;;;;;;5027603;28;20080;-82
2022/11/01 04:02:53;;;;;;;9.05;2.42;;;10.70;99.90;;;;;;5010850;28;20436;-81
2022/11/01 04:05:20;;;;;;;6.80;2.10;;;10.70;99.90;;;;;;5008812;28;20057;-80
2022/11/01 04:07:47;;;;;;;7.25;2.10;;;10.80;99.90;;;;;;5007815;28;20048;-82
2022/11/01 04:10:14;;;;;;;6.95;2.05;;;10.90;99.90;;;;;;5025126;28;20416;-81
2022/11/01 04:12:43;;;;;;;8.27;2.22;;;10.90;99.90;;;;;;5029200;28;20051;-81
2022/11/01 04:21:09;;;;;;;5.18;2.00;;;10.90;99.90;;;;;;5039249;28;20098;-81
2022/11/01 04:23:35;;;;;;;5.45;1.98;;;11.10;99.90;;;;;;5028429;28;20376;-80
2022/11/01 04:26:03;;;;;;;7.43;2.55;;;11.10;99.90;;;;;;5042879;28;20439;-80
2022/11/01 04:28:30;;;;;;;7.82;2.22;;;11.10;99.90;;;;;;5027398;28;20063;-80
2022/11/01 04:30:57;;;;;;;4.55;1.83;;;11.20;99.90;;;;;;5044220;28;20056;-80
2022/11/01 04:33:23;;;;;;;7.47;2.03;;;11.30;99.90;;;;;;5044453;28;20068;-80
2022/11/01 04:35:50;;;;;;;5.40;1.70;;;11.40;99.90;;;;;;5042848;28;20052;-80
2022/11/01 04:38:17;;;;;;;6.18;2.30;;;11.40;99.90;;;;;;5043737;28;20059;-80
2022/11/01 04:40:44;;;;;;;8.20;1.80;;;11.50;99.90;;;;;;5044296;28;20053;-80
2022/11/01 04:43:14;;;;;;;4.20;1.48;;;11.50;99.90;;;;;;5041760;28;20721;-80
2022/11/01 04:45:40;;;;;;;2.53;1.70;;;11.50;99.90;;;;;;5023793;28;20073;-79
2022/11/01 04:48:14;;;;;;;4.38;1.38;;;11.50;99.90;;;;;;5021963;28;20745;-79
2022/11/01 04:50:41;;;;;;;5.57;1.80;;;11.60;99.90;;;;;;5024031;28;20191;-79
2022/11/01 04:53:09;;;;;;;6.28;2.33;;;11.60;99.90;;;;;;5031371;28;20045;-80
2022/11/01 04:55:35;;;;;;;3.83;1.50;;;11.70;99.90;;;;;;5028336;28;20075;-79
2022/11/01 04:58:03;;;;;;;6.55;2.00;;;11.70;99.90;;;;;;5043020;28;20516;-79
2022/11/01 05:00:31;;;;;;;6.43;1.88;;;11.80;99.90;;;;;;5045366;28;20072;-79
2022/11/01 05:03:00;;;;;;;6.05;1.80;;;11.80;99.90;;;;;;5047575;28;20049;-79
2022/11/01 05:05:27;;;;;;;3.40;1.45;;;11.90;99.90;;;;;;5047920;28;20512;-79
2022/11/01 05:08:04;;;;;;;5.32;1.63;;;12.00;99.90;;;;;;5031268;28;20422;-79
2022/11/01 05:10:31;;;;;;;6.72;2.13;;;12.00;99.90;;;;;;5044095;28;20041;-79
2022/11/01 05:12:59;;;;;;;5.10;1.67;;;12.10;99.90;;;;;;5033913;28;20132;-79
2022/11/01 05:15:27;;;;;;;9.00;2.03;;;12.10;99.90;;;;;;5028398;28;20049;-79
2022/11/01 05:17:54;;;;;;;5.45;1.98;;;12.20;99.90;;;;;;5011447;28;20129;-79
2022/11/01 05:20:21;;;;;;;6.57;2.15;;;12.20;99.90;;;;;;5028092;28;20057;-79
2022/11/01 05:22:47;;;;;;;3.85;1.38;;;12.30;99.90;;;;;;5031678;28;20504;-79
2022/11/01 05:25:15;;;;;;;3.45;1.20;;;12.30;99.90;;;;;;5036766;28;20068;-80
2022/11/01 05:27:42;;;;;;;7.05;2.03;;;12.30;99.90;;;;;;5028428;28;20396;-79
2022/11/01 05:30:09;;;;;;;3.17;1.30;;;12.40;99.90;;;;;;5028349;28;20049;-79
2022/11/01 05:32:36;;;;;;;6.38;1.73;;;12.30;99.90;;;;;;5046546;28;20045;-79
2022/11/01 05:35:03;;;;;;;4.95;1.88;;;12.40;99.90;;;;;;5049086;28;20056;-78
2022/11/01 05:37:30;;;;;;;3.67;1.25;;;12.40;99.90;;;;;;5047923;28;20053;-78
2022/11/01 05:39:57;;;;;;;3.45;1.35;;;12.40;99.90;;;;;;5030612;28;20488;-79
2022/11/01 05:42:24;;;;;;;6.88;1.88;;;12.40;99.90;;;;;;5047213;28;20480;-79
2022/11/01 05:44:51;;;;;;;6.18;1.80;;;12.30;99.90;;;;;;5047014;28;20397;-79
2022/11/01 05:47:17;;;;;;;3.47;1.20;;;12.40;99.90;;;;;;5031232;28;20076;-78
2022/11/01 05:49:44;;;;;;;4.03;1.35;;;12.40;99.90;;;;;;5027532;28;20057;-79
2022/11/01 05:52:11;;;;;;;8.52;1.90;;;12.30;99.90;;;;;;5044726;28;20053;-79
2022/11/01 05:54:38;;;;;;;3.95;1.73;;;12.30;99.90;;;;;;5045121;28;20392;-80
2022/11/01 05:57:05;;;;;;;4.45;2.15;;;12.40;99.90;;;;;;5002162;28;20056;-79
2022/11/01 05:59:32;;;;;;;4.78;2.10;;;12.40;99.90;;;;;;5015678;28;20049;-80
2022/11/01 06:01:58;;;;;;;3.92;1.70;;;12.40;99.90;;;;;;5032435;28;20128;-79
2022/11/01 06:04:25;;;;;;;6.65;2.20;;;12.50;99.90;;;;;;5038308;28;20052;-79
2022/11/01 06:06:52;;;;;;;7.72;2.45;;;12.60;99.90;;;;;;5039377;28;20650;-78
2022/11/01 06:09:19;;;;;;;6.13;2.00;;;12.60;99.90;;;;;;5026935;28;20052;-80
2022/11/01 06:11:46;;;;;;;5.93;2.58;;;12.70;99.90;;;;;;5029114;28;20050;-79
2022/11/01 06:14:12;;;;;;;9.30;2.35;;;12.80;99.90;;;;;;5017001;28;20041;-79
2022/11/01 06:16:39;;;;;;;8.48;2.38;;;12.80;99.90;;;;;;5030606;28;20148;-79
2022/11/01 06:19:07;;;;;;;3.47;1.20;;;12.80;99.90;;;;;;5026032;28;20576;-79
2022/11/01 06:21:34;;;;;;;5.10;1.77;;;12.80;99.90;;;;;;5032610;28;20539;-80
2022/11/01 06:24:04;;;;;;;3.17;1.40;;;12.80;99.90;;;;;;5027008;28;20053;-79
2022/11/01 06:26:31;;;;;;;6.03;2.13;;;12.80;99.90;;;;;;5027337;28;20324;-81
2022/11/01 06:29:01;;;;;;;5.93;2.53;;;12.80;99.90;;;;;;5030804;28;20050;-80
2022/11/01 06:31:28;;;;;;;4.60;2.03;;;12.80;99.90;;;;;;5014557;28;20059;-80
2022/11/01 06:33:55;;;;;;;7.22;1.90;;;12.80;99.90;;;;;;5032964;28;20052;-80
2022/11/01 06:36:22;;;;;;;6.30;1.88;;;12.80;99.90;;;;;;5021540;28;20056;-79
2022/11/01 06:38:49;;;;;;;6.05;1.77;;;12.90;99.90;;;;;;5029481;28;20060;-79
2022/11/01 06:41:16;;;;;;;6.68;2.38;;;12.90;99.90;;;;;;5026719;28;20041;-79
2022/11/01 06:43:42;;;;;;;7.18;2.10;;;13.10;99.90;;;;;;5026076;28;20461;-79
2022/11/01 06:46:09;;;;;;;4.65;1.63;;;13.20;99.90;;;;;;5023730;28;20045;-81
2022/11/01 06:48:36;;;;;;;4.88;2.10;;;13.10;99.90;;;;;;5013357;28;20045;-79
2022/11/01 06:51:03;;;;;;;4.15;1.60;;;13.10;99.90;;;;;;5017158;28;20048;-81
2022/11/01 06:53:30;;;;;;;2.47;1.20;;;13.10;99.90;;;;;;5025926;28;20484;-80
2022/11/01 06:55:58;;;;;;;4.35;1.42;;;13.10;99.90;;;;;;5019348;28;20053;-78
2022/11/01 06:58:26;;;;;;;5.18;1.80;;;13.20;99.90;;;;;;5034847;28;20061;-79
2022/11/01 07:00:53;;;;;;;6.60;2.08;;;13.20;99.90;;;;;;5032359;28;20050;-79
2022/11/01 07:03:20;;;;;;;4.75;1.80;;;13.30;99.90;;;;;;5033328;28;20055;-80
2022/11/01 07:05:48;;;;;;;6.15;2.05;;;13.40;99.90;;;;;;5030467;28;20053;-79
2022/11/01 07:08:15;;;;;;;6.65;2.38;;;13.60;99.90;;;;;;5025342;28;20045;-79
2022/11/01 07:10:42;;;;;;;5.55;1.90;;;13.70;99.90;;;;;;5029084;28;20044;-80
2022/11/01 07:13:10;;;;;;;9.05;2.88;;;13.70;99.90;;;;;;5013598;28;20057;-81
2022/11/01 07:15:37;;;;;;;6.72;2.53;;;13.70;99.90;;;;;;5024096;28;20049;-81
2022/11/01 07:18:05;;;;;;;5.93;2.03;;;13.80;99.90;;;;;;5026282;28;20041;-80
2022/11/01 07:20:40;;;;;;;7.95;2.78;;;13.80;99.90;;;;;;5035403;28;20092;-79
2022/11/01 07:23:12;;;;;;;5.47;1.92;;;13.80;99.90;;;;;;5034666;28;20542;-80
2022/11/01 07:25:39;;;;;;;7.13;2.22;;;13.80;99.90;;;;;;5039393;28;20397;-80
2022/11/01 07:28:06;;;;;;;11.05;2.55;;;13.80;99.90;;;;;;4990242;28;20128;-79
2022/11/01 07:30:33;;;;;;;6.43;2.13;;;13.90;99.90;;;;;;5021942;28;20124;-81
2022/11/01 07:33:01;;;;;;;8.80;2.58;;;13.90;99.90;;;;;;5025663;28;20052;-80
2022/11/01 07:35:28;;;;;;;9.40;2.33;;;14.00;99.90;;;;;;5044679;28;20520;-80
2022/11/01 07:37:57;;;;;;;10.25;3.17;;;14.00;99.90;;;;;;5005251;28;20049;-80
2022/11/01 07:40:26;;;;;;;5.63;2.08;;;14.00;99.90;;;;;;5032852;28;20139;-80
2022/11/01 07:43:02;;;;;;;4.18;2.20;;;14.00;99.90;;;;;;5030657;28;20246;-80
2022/11/01 07:45:30;;;;;;;8.25;2.22;;;14.00;99.90;;;;;;5030206;28;20049;-79
2022/11/01 07:48:01;;;;;;;9.35;2.75;;;14.00;99.90;;;;;;5024269;28;20060;-79
2022/11/01 07:50:30;;;;;;;8.40;2.72;;;14.00;99.90;;;;;;5040559;28;20056;-80
2022/11/01 07:53:08;;;;;;;7.80;2.42;;;14.00;99.90;;;;;;5043426;28;20053;-79
2022/11/01 07:55:35;;;;;;;5.78;2.35;;;14.10;99.90;;;;;;5041246;28;20056;-79
2022/11/01 07:58:03;;;;;;;5.05;1.80;;;14.10;99.90;;;;;;5003303;28;20069;-78
2022/11/01 08:00:30;;;;;;;5.03;1.98;;;14.10;99.90;;;;;;5017652;28;20045;-78
2022/11/01 08:03:07;;;;;;;5.43;1.83;;;14.20;99.90;;;;;;5037370;28;20049;-80
2022/11/01 08:05:34;;;;;;;6.00;2.42;;;14.30;99.90;;;;;;5039570;28;20048;-78
2022/11/01 08:08:01;;;;;;;3.72;1.30;;;14.40;99.90;;;;;;5037996;28;20781;-78
2022/11/01 08:10:28;;;;;;;9.90;2.25;;;14.50;99.90;;;;;;5018487;28;20103;-78
2022/11/01 08:13:23;;;;;;;6.95;2.10;;;14.50;99.90;;;;;;5025576;28;20063;-78
2022/11/01 08:15:50;;;;;;;7.68;2.42;;;14.60;99.90;;;;;;5028750;28;20055;-78
2022/11/01 08:18:17;;;;;;;6.22;1.90;;;14.60;99.90;;;;;;5011802;28;20046;-78
2022/11/01 08:20:44;;;;;;;6.85;2.20;;;14.70;99.90;;;;;;5027754;28;20045;-78
2022/11/01 08:23:11;;;;;;;6.72;2.35;;;14.60;99.90;;;;;;5012431;28;20048;-79
2022/11/01 08:25:38;;;;;;;7.38;2.25;;;14.70;99.90;;;;;;5027188;28;20057;-78
2022/11/01 08:28:07;;;;;;;10.20;2.92;;;14.80;99.90;;;;;;5026708;28;20063;-78
2022/11/01 08:30:34;;;;;;;9.25;2.40;;;14.80;99.90;;;;;;5029799;28;20045;-79
2022/11/01 08:33:02;;;;;;;7.07;2.78;;;14.90;99.90;;;;;;5026919;28;20232;-78
2022/11/01 08:35:29;;;;;;;5.82;1.85;;;14.90;99.90;;;;;;5040011;28;20048;-79
2022/11/01 08:37:57;;;;;;;5.93;2.15;;;15.00;99.90;;;;;;5038421;28;20530;-78
2022/11/01 08:40:27;;;;;;;6.18;2.38;;;15.00;99.90;;;;;;5040456;28;20104;-78
2022/11/01 08:42:53;;;;;;;6.13;1.88;;;15.10;99.90;;;;;;5037332;28;20093;-78
2022/11/01 08:45:22;;;;;;;4.90;1.95;;;15.20;99.90;;;;;;5017215;28;20156;-77
2022/11/01 08:47:48;;;;;;;6.28;2.78;;;15.20;99.90;;;;;;5019339;28;20057;-77
2022/11/01 08:50:16;;;;;;;5.93;1.80;;;15.30;99.90;;;;;;5032750;28;20057;-78
2022/11/01 08:52:43;;;;;;;7.65;1.92;;;15.30;99.90;;;;;;5039920;28;20764;-78
2022/11/01 08:55:10;;;;;;;7.15;2.30;;;15.10;99.90;;;;;;5022494;28;20045;-78
2022/11/01 08:57:37;;;;;;;5.22;2.08;;;14.90;99.90;;;;;;5039553;28;20045;-78
2022/11/01 09:00:05;;;;;;;4.22;1.63;;;14.80;99.90;;;;;;5038443;28;20966;-77
2022/11/01 09:02:33;;;;;;;5.50;1.83;;;14.70;99.90;;;;;;5037682;28;20072;-78
2022/11/01 09:05:06;;;;;;;4.63;1.80;;;14.60;99.90;;;;;;5022643;28;20404;-78
2022/11/01 09:07:36;;;;;;;3.38;1.60;;;14.50;99.90;;;;;;5029229;28;20127;-79
2022/11/01 09:10:04;;;;;;;5.88;1.70;;;14.50;99.90;;;;;;5022599;28;20056;-79
2022/11/01 09:12:31;;;;;;;5.63;1.73;;;14.40;99.90;;;;;;5031906;28;20053;-78
2022/11/01 09:14:58;;;;;;;6.22;2.03;;;14.50;99.90;;;;;;5003034;28;20394;-79
2022/11/01 09:17:24;;;;;;;5.88;1.73;;;14.60;99.90;;;;;;5001787;28;20496;-79
2022/11/01 09:19:51;;;;;;;5.00;1.58;;;14.50;99.90;;;;;;5017574;28;20852;-79
2022/11/01 09:22:18;;;;;;;8.05;2.65;;;14.60;99.90;;;;;;5019866;28;20061;-79
2022/11/01 09:24:45;;;;;;;8.88;2.78;;;14.70;99.90;;;;;;5023480;28;20059;-79
2022/11/01 09:27:12;;;;;;;7.13;2.63;;;14.70;99.90;;;;;;5026216;28;20432;-78
2022/11/01 09:29:38;;;;;;;5.38;1.70;;;14.60;99.90;;;;;;5029381;28;20204;-79
2022/11/01 09:32:05;;;;;;;4.28;1.58;;;14.40;99.90;;;;;;5019974;28;20054;-80
2022/11/01 09:34:33;;;;;;;5.78;1.95;;;14.40;99.90;;;;;;5022707;28;20485;-81
2022/11/01 09:37:00;;;;;;;5.43;1.80;;;14.30;99.90;;;;;;5028244;28;20068;-80
2022/11/01 09:39:26;;;;;;;5.45;1.85;;;14.40;99.90;;;;;;5009339;28;20241;-80
2022/11/01 09:42:05;;;;;;;5.57;2.35;;;14.50;99.90;;;;;;5021497;28;20088;-79
2022/11/01 09:44:38;;;;;;;5.93;2.03;;;14.60;99.90;;;;;;5011038;28;20057;-82
2022/11/01 09:47:25;;;;;;;6.35;2.20;;;14.70;99.90;;;;;;5013846;28;20133;-84
2022/11/01 09:50:05;;;;;;;5.70;1.85;;;14.80;99.90;;;;;;5027768;28;20053;-78
2022/11/01 09:52:32;;;;;;;4.35;1.70;;;14.80;99.90;;;;;;5029059;28;20052;-79
2022/11/01 09:54:59;;;;;;;5.20;1.75;;;14.80;99.90;;;;;;5044516;28;20424;-79
2022/11/01 09:57:38;;;;;;;6.15;2.70;;;14.70;99.90;;;;;;5044176;28;20394;-79
2022/11/01 10:00:12;;;;;;;3.55;1.92;;;14.60;99.90;;;;;;5023412;28;20051;-80
2022/11/01 10:02:51;;;;;;;3.30;1.52;;;14.50;99.90;;;;;;5043402;28;20064;-85
2022/11/01 10:05:30;;;;;;;3.80;1.80;;;14.40;99.90;;;;;;5045953;28;20519;-83
2022/11/01 10:08:16;;;;;;;5.93;1.95;;;14.20;99.90;;;;;;5045302;28;20049;-83
2022/11/01 10:11:05;;;;;;;6.80;2.63;;;14.00;99.90;;;;;;5025231;28;20049;-82
2022/11/01 10:13:46;;;;;;;4.82;2.00;;;13.80;99.90;;;;;;5016492;28;20053;-81
2022/11/01 10:16:21;;;;;;;5.80;2.17;;;13.70;99.90;;;;;;5040259;28;20222;-81
2022/11/01 10:18:59;;;;;;;6.70;2.03;;;13.60;99.90;;;;;;5039003;28;20050;-81
2022/11/01 10:21:26;;;;;;;6.20;2.38;;;13.60;99.90;;;;;;5015758;28;20041;-80
2022/11/01 10:23:55;;;;;;;5.72;1.90;;;13.50;99.90;;;;;;5028833;28;20418;-80
2022/11/01 10:26:27;;;;;;;3.50;1.30;;;13.50;99.90;;;;;;5017993;28;20037;-81
2022/11/01 10:29:20;;;;;;;4.10;1.27;;;13.60;99.90;;;;;;5017353;28;20040;-81
2022/11/01 10:31:49;;;;;;;4.85;1.55;;;13.60;99.90;;;;;;5036031;28;20048;-81
2022/11/01 10:34:19;;;;;;;5.80;1.88;;;13.60;99.90;;;;;;5012905;28;20489;-80
2022/11/01 10:36:46;;;;;;;4.45;1.65;;;13.60;99.90;;;;;;5031910;28;20045;-80
2022/11/01 10:39:28;;;;;;;3.22;1.23;;;13.60;99.90;;;;;;5016641;28;20128;-80
2022/11/01 10:42:15;;;;;;;5.15;1.40;;;13.50;99.90;;;;;;5034219;28;20049;-80
2022/11/01 10:44:45;;;;;;;4.38;1.55;;;13.50;99.90;;;;;;5032154;28;20497;-80
2022/11/01 10:47:17;;;;;;;2.22;1.10;;;13.50;99.90;;;;;;5030580;28;20045;-80
2022/11/01 10:50:00;;;;;;;4.22;1.35;;;13.50;99.90;;;;;;5016908;28;20469;-80
2022/11/01 10:52:54;;;;;;;4.82;1.67;;;13.50;99.90;;;;;;5031555;28;20045;-79
2022/11/01 10:55:38;;;;;;;2.05;1.00;;;13.60;99.90;;;;;;5033175;28;20045;-79
2022/11/01 10:58:26;;;;;;;3.72;1.20;;;13.60;99.90;;;;;;5032506;28;20788;-79
2022/11/01 11:00:53;;;;;;;3.30;1.40;;;13.60;99.90;;;;;;5032900;28;20172;-79
2022/11/01 11:03:23;;;;;;;2.08;0.93;;;13.70;99.90;;;;;;5029518;28;20056;-79
2022/11/01 11:05:50;;;;;;;2.92;1.15;;;13.70;99.90;;;;;;5013989;28;20045;-79
2022/11/01 11:08:18;;;;;;;2.13;0.90;;;13.80;99.90;;;;;;5032040;28;20052;-79
2022/11/01 11:10:45;;;;;;;1.67;0.77;;;13.90;99.90;;;;;;5017545;28;20049;-78
2022/11/01 11:13:13;;;;;;;2.22;1.20;;;14.00;99.90;;;;;;5031249;28;20068;-79
2022/11/01 11:15:43;;;;;;;3.50;1.10;;;14.00;99.90;;;;;;5026270;28;20613;-79
2022/11/01 11:18:29;;;;;;;3.22;1.20;;;14.10;99.90;;;;;;5025220;28;20122;-79
2022/11/01 11:21:03;;;;;;;1.60;0.85;;;14.00;99.90;;;;;;5021733;28;20053;-79
2022/11/01 11:23:32;;;;;;;2.83;0.98;;;14.10;99.90;;;;;;5033896;28;20041;-79
2022/11/01 11:26:16;;;;;;;2.05;1.15;;;14.20;99.90;;;;;;5042499;28;20114;-79
2022/11/01 11:28:46;;;;;;;7.10;2.13;;;14.30;99.90;;;;;;5027855;28;20751;-78
2022/11/01 11:31:35;;;;;;;3.20;1.40;;;14.40;99.90;;;;;;5042479;28;20053;-80
2022/11/01 11:34:20;;;;;;;2.83;1.48;;;14.50;99.90;;;;;;5040778;28;20135;-78
2022/11/01 11:36:48;;;;;;;2.53;1.20;;;14.60;99.90;;;;;;5042732;28;20548;-78
2022/11/01 11:39:25;;;;;;;3.25;1.20;;;14.80;99.90;;;;;;5043728;28;20056;-80
2022/11/01 11:41:51;;;;;;;2.53;1.10;;;15.00;99.90;;;;;;5043072;28;20079;-77
2022/11/01 11:44:33;;;;;;;1.55;0.90;;;15.20;99.90;;;;;;5005784;28;20053;-80
2022/11/01 11:47:04;;;;;;;3.72;1.50;;;15.20;99.90;;;;;;5023881;28;20131;-80
2022/11/01 11:49:31;;;;;;;5.35;1.80;;;15.20;99.90;;;;;;5024474;28;20060;-81
2022/11/01 11:52:00;;;;;;;3.33;1.30;;;15.10;99.90;;;;;;5042325;28;20139;-80
2022/11/01 11:54:30;;;;;;;3.10;1.27;;;14.90;99.90;;;;;;5021963;28;20046;-79
2022/11/01 11:57:10;;;;;;;6.60;2.83;;;14.90;99.90;;;;;;5021928;28;20272;-79
2022/11/01 11:59:37;;;;;;;6.28;2.10;;;14.80;99.90;;;;;;5009978;28;20053;-79
2022/11/01 12:02:11;;;;;;;3.47;1.75;;;14.80;99.90;;;;;;5015857;28;20048;-79
2022/11/01 12:04:46;;;;;;;2.55;1.40;;;15.10;99.90;;;;;;5038551;28;20507;-79
2022/11/01 12:07:21;;;;;;;4.82;1.60;;;15.40;99.90;;;;;;5040774;28;20059;-79
2022/11/01 12:09:48;;;;;;;3.53;1.40;;;15.60;99.90;;;;;;5043180;28;20061;-78
2022/11/01 12:12:19;;;;;;;3.60;1.75;;;15.80;99.90;;;;;;5024725;28;20075;-78
2022/11/01 12:14:46;;;;;;;4.72;1.92;;;15.90;99.90;;;;;;5042072;28;20077;-79
2022/11/01 12:17:32;;;;;;;4.30;1.70;;;16.10;99.90;;;;;;5040893;28;20479;-78
2022/11/01 12:20:08;;;;;;;3.60;1.60;;;16.20;99.90;;;;;;5041330;28;20457;-78
2022/11/01 12:22:35;;;;;;;4.50;1.45;;;16.40;99.90;;;;;;5040621;28;20049;-78
2022/11/01 12:25:09;;;;;;;3.50;1.50;;;16.70;99.90;;;;;;5008994;28;20076;-79
2022/11/01 12:27:36;;;;;;;3.90;1.35;;;16.80;99.90;;;;;;5008341;28;20746;-79
2022/11/01 12:30:10;;;;;;;2.70;1.50;;;17.00;99.90;;;;;;5043025;28;20056;-78
2022/11/01 12:32:53;;;;;;;4.22;1.52;;;17.30;99.90;;;;;;5036566;28;20081;-79
2022/11/01 12:35:41;;;;;;;1.95;1.05;;;17.70;99.90;;;;;;5040766;28;20626;-79
2022/11/01 12:38:26;;;;;;;3.55;1.42;;;18.10;99.90;;;;;;5027808;28;20508;-83
2022/11/01 12:40:53;;;;;;;3.92;1.77;;;18.30;99.90;;;;;;5030086;28;20900;-82
2022/11/01 12:43:34;;;;;;;5.90;2.05;;;18.30;99.90;;;;;;5016468;28;20051;-82
2022/11/01 12:46:07;;;;;;;5.03;1.98;;;18.30;99.90;;;;;;5009001;28;20148;-83
2022/11/01 12:48:36;;;;;;;7.10;2.28;;;18.40;99.90;;;;;;5005138;28;20052;-83
2022/11/01 12:51:12;;;;;;;6.47;2.45;;;18.40;99.90;;;;;;5001385;28;20069;-83
2022/11/01 12:53:43;;;;;;;4.28;1.80;;;18.30;99.90;;;;;;5022845;28;20067;-79
2022/11/01 12:56:10;;;;;;;6.30;2.35;;;18.40;99.90;;;;;;5021953;28;20492;-78
2022/11/01 12:58:37;;;;;;;7.97;2.72;;;18.20;99.90;;;;;;5022457;28;20045;-78
2022/11/01 13:01:04;;;;;;;6.47;2.33;;;18.30;99.90;;;;;;5025844;28;20049;-79
2022/11/01 13:04:04;;;;;;;4.07;2.00;;;18.40;99.90;;;;;;5027330;28;20049;-78
2022/11/01 13:07:08;;;;;;;6.15;2.50;;;18.20;99.90;;;;;;5019735;28;20431;-78
2022/11/01 13:10:04;;;;;;;10.73;3.42;;;17.70;99.90;;;;;;5027846;28;20051;-78
2022/11/01 13:12:52;;;;;;;8.20;2.70;;;17.20;99.90;;;;;;5029953;28;20056;-78